createdAt,value
2023-10-04T00:01:07.417Z,82.90
2023-10-04T00:04:14.873Z,82.90
2023-10-04T00:07:20.412Z,83.60
2023-10-04T00:10:28.874Z,83.40
2023-10-04T00:13:37.285Z,84.90
2023-10-04T00:16:44.886Z,90.00
2023-10-04T00:19:50.335Z,83.10
2023-10-04T00:22:57.826Z,83.00
2023-10-04T00:26:03.080Z,83.10
2023-10-04T00:29:13.072Z,84.00
2023-10-04T00:32:18.425Z,87.30
2023-10-04T00:35:26.921Z,82.30
2023-10-04T00:38:32.437Z,87.80
2023-10-04T00:41:41.319Z,85.80
2023-10-04T00:44:49.380Z,83.40
2023-10-04T00:47:59.415Z,87.60
2023-10-04T00:51:07.918Z,85.80
2023-10-04T00:54:16.991Z,83.30
2023-10-04T00:57:22.999Z,83.50
2023-10-04T01:00:33.003Z,84.20
2023-10-04T01:03:39.705Z,83.40
2023-10-04T01:06:48.140Z,83.40
2023-10-04T01:09:54.661Z,83.40
2023-10-04T01:13:05.241Z,83.30
2023-10-04T01:16:14.329Z,83.40
2023-10-04T01:19:24.000Z,83.30
2023-10-04T01:22:33.272Z,83.30
2023-10-04T01:25:42.461Z,83.40
2023-10-04T01:28:47.842Z,83.30
2023-10-04T01:31:58.854Z,83.30
2023-10-04T01:35:06.599Z,83.30
2023-10-04T01:38:16.972Z,83.30
2023-10-04T01:41:22.226Z,83.30
2023-10-04T01:44:29.604Z,83.40
2023-10-04T01:47:35.820Z,83.30
2023-10-04T01:50:43.700Z,83.30
2023-10-04T01:53:54.043Z,83.40
2023-10-04T01:57:01.632Z,83.30
2023-10-04T02:00:08.304Z,83.30
2023-10-04T02:03:20.208Z,83.30
2023-10-04T02:06:26.097Z,83.20
2023-10-04T02:09:37.013Z,83.20
2023-10-04T02:12:42.805Z,83.60
2023-10-04T02:15:52.728Z,83.40
2023-10-04T02:18:58.348Z,83.40
2023-10-04T02:22:16.735Z,83.50
2023-10-04T02:25:24.720Z,87.10
2023-10-04T02:28:34.668Z,85.90
2023-10-04T02:31:40.344Z,83.40
2023-10-04T02:34:47.637Z,83.40
2023-10-04T02:37:55.982Z,83.50
2023-10-04T02:41:07.927Z,83.50
2023-10-04T02:44:16.502Z,83.70
2023-10-04T02:47:27.316Z,84.00
2023-10-04T02:50:32.656Z,83.70
2023-10-04T02:53:42.895Z,83.70
2023-10-04T02:56:52.325Z,83.70
2023-10-04T03:00:00.505Z,83.70
2023-10-04T03:03:06.699Z,83.80
2023-10-04T03:06:15.236Z,85.00
2023-10-04T03:09:20.984Z,83.70
2023-10-04T03:12:30.991Z,84.40
2023-10-04T03:15:36.973Z,86.10
2023-10-04T03:18:47.542Z,86.10
2023-10-04T03:21:53.070Z,86.40
2023-10-04T03:25:05.863Z,88.10
2023-10-04T03:28:14.316Z,86.00
2023-10-04T03:31:24.388Z,83.90
2023-10-04T03:34:33.826Z,83.80
2023-10-04T03:37:49.317Z,84.00
2023-10-04T03:40:57.322Z,83.90
2023-10-04T03:44:08.413Z,84.00
2023-10-04T03:47:15.686Z,84.00
2023-10-04T03:50:25.465Z,84.00
2023-10-04T03:53:31.013Z,84.10
2023-10-04T03:56:38.399Z,84.20
2023-10-04T03:59:46.621Z,84.30
2023-10-04T04:02:55.436Z,86.50
2023-10-04T04:06:02.031Z,87.10
2023-10-04T04:09:10.358Z,87.30
2023-10-04T04:12:16.919Z,85.30
2023-10-04T04:15:28.465Z,84.00
2023-10-04T04:18:34.060Z,84.00
2023-10-04T04:21:41.474Z,84.00
2023-10-04T04:24:47.084Z,84.00
2023-10-04T04:27:57.858Z,84.10
2023-10-04T04:31:07.133Z,84.10
2023-10-04T04:34:15.185Z,84.10
2023-10-04T04:37:20.976Z,83.90
2023-10-04T04:40:31.939Z,83.90
2023-10-04T04:43:40.237Z,83.90
2023-10-04T04:46:54.467Z,84.00
2023-10-04T04:50:00.976Z,84.10
2023-10-04T04:53:13.467Z,84.00
2023-10-04T04:56:19.861Z,84.30
2023-10-04T04:59:30.618Z,84.10
2023-10-04T05:02:38.567Z,84.50
2023-10-04T05:05:46.138Z,84.90
2023-10-04T05:08:51.810Z,84.50
2023-10-04T05:11:59.273Z,84.30
2023-10-04T05:15:09.419Z,84.90
2023-10-04T05:18:20.720Z,86.00
2023-10-04T05:21:26.210Z,87.70
2023-10-04T05:24:33.587Z,85.50
2023-10-04T05:27:39.226Z,86.40
2023-10-04T05:30:48.079Z,87.60
2023-10-04T05:33:56.049Z,87.10
2023-10-04T05:37:03.679Z,90.20
2023-10-04T05:40:18.930Z,83.60
2023-10-04T05:43:26.639Z,84.20
2023-10-04T05:46:32.123Z,84.10
2023-10-04T05:49:42.362Z,84.30
2023-10-04T05:52:47.852Z,85.60
2023-10-04T05:55:55.798Z,86.90
2023-10-04T05:59:02.080Z,86.40
2023-10-04T06:02:09.552Z,88.50
2023-10-04T06:05:18.120Z,84.20
2023-10-04T06:08:25.901Z,84.30
2023-10-04T06:11:31.223Z,84.30
2023-10-04T06:14:39.056Z,84.30
2023-10-04T06:17:46.435Z,84.90
2023-10-04T06:20:56.872Z,84.30
2023-10-04T06:24:02.205Z,84.40
2023-10-04T06:27:09.533Z,84.40
2023-10-04T06:30:18.426Z,84.40
2023-10-04T06:33:26.387Z,84.40
2023-10-04T06:36:35.175Z,84.40
2023-10-04T06:39:42.623Z,84.50
2023-10-04T06:42:48.315Z,84.50
2023-10-04T06:45:55.908Z,84.60
2023-10-04T06:49:01.859Z,84.70
2023-10-04T06:52:12.198Z,84.70
2023-10-04T06:55:19.164Z,85.80
2023-10-04T06:58:26.531Z,84.70
2023-10-04T07:01:31.847Z,84.80
2023-10-04T07:04:39.329Z,84.90
2023-10-04T07:07:48.277Z,84.80
2023-10-04T07:10:55.708Z,85.10
2023-10-04T07:14:01.065Z,85.00
2023-10-04T07:17:08.746Z,84.90
2023-10-04T07:20:17.384Z,85.20
2023-10-04T07:23:40.551Z,85.20
2023-10-04T07:26:47.962Z,85.20
2023-10-04T07:29:55.577Z,85.20
2023-10-04T07:33:02.672Z,85.30
2023-10-04T07:36:10.268Z,85.30
2023-10-04T07:39:18.406Z,85.80
2023-10-04T07:42:27.526Z,85.30
2023-10-04T07:45:34.115Z,85.60
2023-10-04T07:48:43.763Z,85.30
2023-10-04T07:51:50.121Z,88.00
2023-10-04T07:55:00.700Z,85.30
2023-10-04T07:58:07.293Z,86.60
2023-10-04T08:01:18.925Z,90.50
2023-10-04T08:04:24.959Z,88.20
2023-10-04T08:07:32.314Z,89.40
2023-10-04T08:10:41.566Z,85.40
2023-10-04T08:13:49.016Z,85.90
2023-10-04T08:16:54.551Z,87.40
2023-10-04T08:20:02.405Z,85.60
2023-10-04T08:23:08.045Z,85.30
2023-10-04T08:26:21.213Z,85.30
2023-10-04T08:29:27.301Z,85.20
2023-10-04T08:32:35.125Z,85.20
2023-10-04T08:35:40.724Z,85.30
2023-10-04T08:38:51.443Z,85.50
2023-10-04T08:41:59.573Z,93.00
2023-10-04T08:45:07.820Z,86.50
2023-10-04T08:48:14.535Z,87.10
2023-10-04T08:51:46.994Z,94.60
2023-10-04T08:54:57.197Z,84.70
2023-10-04T08:58:08.076Z,84.60
2023-10-04T09:01:15.238Z,84.60
2023-10-04T09:04:25.887Z,84.30
2023-10-04T09:07:31.600Z,84.10
2023-10-04T09:10:41.128Z,84.00
2023-10-04T09:13:52.026Z,83.90
2023-10-04T09:17:11.902Z,83.60
2023-10-04T09:20:21.333Z,83.40
2023-10-04T09:23:29.538Z,83.20
2023-10-04T09:26:35.019Z,83.10
2023-10-04T09:29:46.378Z,83.00
2023-10-04T09:32:52.703Z,82.90
2023-10-04T09:36:00.060Z,82.90
2023-10-04T09:39:11.775Z,82.80
2023-10-04T09:42:19.282Z,83.30
2023-10-04T09:45:28.154Z,82.90
2023-10-04T09:48:37.641Z,82.40
2023-10-04T09:51:43.036Z,82.30
2023-10-04T09:54:52.468Z,82.30
2023-10-04T09:57:59.629Z,82.10
2023-10-04T10:01:13.245Z,81.90
2023-10-04T10:04:21.101Z,81.80
2023-10-04T10:07:33.044Z,81.70
2023-10-04T10:10:42.516Z,81.60
2023-10-04T10:13:50.821Z,81.90
2023-10-04T10:16:59.727Z,81.10
2023-10-04T10:20:11.065Z,80.90
2023-10-04T10:23:19.573Z,80.70
2023-10-04T10:26:28.064Z,80.60
2023-10-04T10:29:35.653Z,80.40
2023-10-04T10:32:56.373Z,80.30
2023-10-04T10:36:07.253Z,80.10
2023-10-04T10:39:26.010Z,80.20
2023-10-04T10:42:31.384Z,79.90
2023-10-04T10:45:39.059Z,80.00
2023-10-04T10:48:47.095Z,79.80
2023-10-04T10:51:56.366Z,79.70
2023-10-04T10:55:03.102Z,79.80
2023-10-04T10:58:10.580Z,79.70
2023-10-04T11:01:21.754Z,79.60
2023-10-04T11:04:32.015Z,79.40
2023-10-04T11:07:38.707Z,79.40
2023-10-04T11:10:46.204Z,79.20
2023-10-04T11:13:52.344Z,79.10
2023-10-04T11:17:00.220Z,79.00
2023-10-04T11:20:13.488Z,79.10
2023-10-04T11:23:20.946Z,78.90
2023-10-04T11:26:29.042Z,78.90
2023-10-04T11:29:37.489Z,78.70
2023-10-04T11:32:45.806Z,78.60
2023-10-04T11:35:55.995Z,78.40
2023-10-04T11:39:01.817Z,78.40
2023-10-04T11:42:19.529Z,78.30
2023-10-04T11:45:28.148Z,78.20
2023-10-04T11:48:35.586Z,78.30
2023-10-04T11:51:46.028Z,78.30
2023-10-04T11:54:54.958Z,78.20
2023-10-04T11:58:08.685Z,78.00
2023-10-04T12:01:20.279Z,78.30
2023-10-04T12:04:25.918Z,77.90
2023-10-04T12:07:37.109Z,78.10
2023-10-04T12:10:42.873Z,77.90
2023-10-04T12:13:50.848Z,77.80
2023-10-04T12:16:56.262Z,77.80
2023-10-04T12:20:05.754Z,77.60
2023-10-04T12:23:14.299Z,77.70
2023-10-04T12:26:22.507Z,77.70
2023-10-04T12:29:29.077Z,77.80
2023-10-04T12:32:37.016Z,77.70
2023-10-04T12:35:43.522Z,77.60
2023-10-04T12:38:53.609Z,77.50
2023-10-04T12:42:00.700Z,77.40
2023-10-04T12:45:11.710Z,77.40
2023-10-04T12:48:18.093Z,77.30
2023-10-04T12:51:25.445Z,77.40
2023-10-04T12:54:33.600Z,77.20
2023-10-04T12:57:41.239Z,77.10
2023-10-04T13:00:46.987Z,77.00
2023-10-04T13:03:54.431Z,77.00
2023-10-04T13:06:59.836Z,76.90
2023-10-04T13:10:11.422Z,77.30
2023-10-04T13:13:16.799Z,76.50
2023-10-04T13:16:24.857Z,76.40
2023-10-04T13:19:30.247Z,76.30
2023-10-04T13:22:37.547Z,76.30
2023-10-04T13:25:46.123Z,76.30
2023-10-04T13:28:54.005Z,76.20
2023-10-04T13:31:59.311Z,76.30
2023-10-04T13:35:07.746Z,76.10
2023-10-04T13:38:14.762Z,76.00
2023-10-04T13:41:24.711Z,76.10
2023-10-04T13:44:30.353Z,76.10
2023-10-04T13:47:37.870Z,76.10
2023-10-04T13:50:44.070Z,76.00
2023-10-04T13:53:51.609Z,75.90
2023-10-04T13:57:00.541Z,76.00
2023-10-04T14:00:17.328Z,75.90
2023-10-04T14:03:23.158Z,75.90
2023-10-04T14:06:30.563Z,75.90
2023-10-04T14:09:36.416Z,75.80
2023-10-04T14:12:46.603Z,75.80
2023-10-04T14:15:57.220Z,75.80
2023-10-04T14:19:07.283Z,75.70
2023-10-04T14:22:15.139Z,75.70
2023-10-04T14:25:23.269Z,75.70
2023-10-04T14:28:33.686Z,75.70
2023-10-04T14:31:41.063Z,75.60
2023-10-04T14:34:46.290Z,75.70
2023-10-04T14:37:53.981Z,75.70
2023-10-04T14:41:01.517Z,75.60
2023-10-04T14:44:12.996Z,75.50
2023-10-04T14:47:18.340Z,75.50
2023-10-04T14:50:25.676Z,75.60
2023-10-04T14:53:31.513Z,75.60
2023-10-04T14:56:38.712Z,75.60
2023-10-04T14:59:46.521Z,75.60
2023-10-04T15:02:55.374Z,75.40
2023-10-04T15:06:01.137Z,75.60
2023-10-04T15:09:11.763Z,75.50
2023-10-04T15:12:17.540Z,75.60
2023-10-04T15:15:34.128Z,75.70
2023-10-04T15:18:39.644Z,75.60
2023-10-04T15:21:48.809Z,75.60
2023-10-04T15:24:54.316Z,75.60
2023-10-04T15:28:08.715Z,75.60
2023-10-04T15:31:18.926Z,75.60
2023-10-04T15:34:28.052Z,75.60
2023-10-04T15:37:33.978Z,75.60
2023-10-04T15:40:42.679Z,75.60
2023-10-04T15:43:48.145Z,75.60
2023-10-04T15:47:00.074Z,75.50
2023-10-04T15:50:05.853Z,75.50
2023-10-04T15:53:13.608Z,75.50
2023-10-04T15:56:18.902Z,75.60
2023-10-04T15:59:26.951Z,75.50
2023-10-04T16:02:35.201Z,75.50
2023-10-04T16:05:42.572Z,75.40
2023-10-04T16:08:49.875Z,75.50
2023-10-04T16:11:57.135Z,75.40
2023-10-04T16:15:05.301Z,75.40
2023-10-04T16:18:15.618Z,75.40
2023-10-04T16:21:24.193Z,75.40
2023-10-04T16:24:34.726Z,75.40
2023-10-04T16:27:40.063Z,76.00
2023-10-04T16:30:47.734Z,75.40
2023-10-04T16:33:55.595Z,75.50
2023-10-04T16:37:03.302Z,75.50
2023-10-04T16:40:13.975Z,75.40
2023-10-04T16:43:21.869Z,75.40
2023-10-04T16:46:27.163Z,75.50
2023-10-04T16:49:37.276Z,75.40
2023-10-04T16:52:42.582Z,75.50
2023-10-04T16:55:49.947Z,75.50
2023-10-04T16:58:57.466Z,75.50
2023-10-04T17:02:08.081Z,75.50
2023-10-04T17:05:16.537Z,75.50
2023-10-04T17:08:23.889Z,75.50
2023-10-04T17:11:29.321Z,75.60
2023-10-04T17:14:39.291Z,75.60
2023-10-04T17:17:46.373Z,75.70
2023-10-04T17:20:56.438Z,75.70
2023-10-04T17:24:01.661Z,75.60
2023-10-04T17:27:08.972Z,75.60
2023-10-04T17:30:21.610Z,75.70
2023-10-04T17:33:32.065Z,76.50
2023-10-04T17:36:40.401Z,75.80
2023-10-04T17:39:48.447Z,75.90
2023-10-04T17:42:53.744Z,75.90
2023-10-04T17:46:01.456Z,75.90
2023-10-04T17:49:07.470Z,76.00
2023-10-04T17:52:18.854Z,75.90
2023-10-04T17:55:24.464Z,75.90
2023-10-04T17:58:31.718Z,76.00
2023-10-04T18:01:37.063Z,76.10
2023-10-04T18:04:44.982Z,76.10
2023-10-04T18:07:53.020Z,76.00
2023-10-04T18:11:00.321Z,76.00
2023-10-04T18:14:07.350Z,76.00
2023-10-04T18:17:15.062Z,76.00
2023-10-04T18:20:21.146Z,76.10
2023-10-04T18:23:31.088Z,76.70
2023-10-04T18:26:36.360Z,76.20
2023-10-04T18:29:43.977Z,76.20
2023-10-04T18:32:49.450Z,76.30
2023-10-04T18:35:56.955Z,76.20
2023-10-04T18:39:05.079Z,76.20
2023-10-04T18:42:13.189Z,76.20
2023-10-04T18:45:18.597Z,76.30
2023-10-04T18:48:25.938Z,76.30
2023-10-04T18:51:31.292Z,76.30
2023-10-04T18:54:41.238Z,76.40
2023-10-04T18:57:46.994Z,76.50
2023-10-04T19:00:54.433Z,76.50
2023-10-04T19:04:00.218Z,76.50
2023-10-04T19:07:07.659Z,76.40
2023-10-04T19:10:17.863Z,76.50
2023-10-04T19:13:25.136Z,76.50
2023-10-04T19:16:30.529Z,76.60
2023-10-04T19:19:37.831Z,76.60
2023-10-04T19:22:43.853Z,76.70
2023-10-04T19:25:54.256Z,76.70
2023-10-04T19:28:59.651Z,76.80
2023-10-04T19:32:07.276Z,76.80
2023-10-04T19:35:17.249Z,76.80
2023-10-04T19:38:28.119Z,76.90
2023-10-04T19:41:37.047Z,76.90
2023-10-04T19:44:44.707Z,76.90
2023-10-04T19:47:51.942Z,77.00
2023-10-04T19:50:59.546Z,77.10
2023-10-04T19:54:04.926Z,77.00
2023-10-04T19:57:14.958Z,77.00
2023-10-04T20:00:25.904Z,77.00
2023-10-04T20:03:33.770Z,77.00
2023-10-04T20:06:39.877Z,77.10
2023-10-04T20:09:47.362Z,77.00
2023-10-04T20:12:58.992Z,77.10
2023-10-04T20:16:10.489Z,77.20
2023-10-04T20:19:15.911Z,77.30
2023-10-04T20:22:23.314Z,77.30
2023-10-04T20:25:30.241Z,77.40
2023-10-04T20:28:40.378Z,77.30
2023-10-04T20:31:46.174Z,77.30
2023-10-04T20:34:53.735Z,77.30
2023-10-04T20:37:59.022Z,77.30
2023-10-04T20:41:06.604Z,77.40
2023-10-04T20:44:14.523Z,77.40
2023-10-04T20:47:22.299Z,77.40
2023-10-04T20:50:27.845Z,77.40
2023-10-04T20:53:35.297Z,77.40
2023-10-04T20:56:40.560Z,77.40
2023-10-04T20:59:51.088Z,77.50
2023-10-04T21:02:56.520Z,77.60
2023-10-04T21:06:04.220Z,77.50
2023-10-04T21:09:09.922Z,77.60
2023-10-04T21:12:17.251Z,77.70
2023-10-04T21:15:26.436Z,77.70
2023-10-04T21:18:35.724Z,77.70
2023-10-04T21:21:41.027Z,77.70
2023-10-04T21:24:49.201Z,77.70
2023-10-04T21:27:54.993Z,77.80
2023-10-04T21:31:12.034Z,77.80
2023-10-04T21:34:19.698Z,77.70
2023-10-04T21:37:30.612Z,77.80
2023-10-04T21:40:43.410Z,77.90
2023-10-04T21:44:01.491Z,77.90
2023-10-04T21:47:17.991Z,78.00
2023-10-04T21:50:27.658Z,77.90
2023-10-04T21:53:33.425Z,77.90
2023-10-04T21:56:41.162Z,78.00
2023-10-04T21:59:47.197Z,78.00
2023-10-04T22:02:58.830Z,78.00
2023-10-04T22:06:05.471Z,78.10
2023-10-04T22:09:18.170Z,78.20
2023-10-04T22:12:25.770Z,78.20
2023-10-04T22:15:33.602Z,78.20
2023-10-04T22:18:43.847Z,78.20
2023-10-04T22:21:50.563Z,78.30
2023-10-04T22:25:03.074Z,78.40
2023-10-04T22:28:10.053Z,78.40
2023-10-04T22:31:17.917Z,78.50
2023-10-04T22:34:26.114Z,78.50
2023-10-04T22:37:33.749Z,78.60
2023-10-04T22:40:39.338Z,78.60
2023-10-04T22:43:46.628Z,78.60
2023-10-04T22:46:52.889Z,78.70
2023-10-04T22:50:06.633Z,78.70
2023-10-04T22:53:12.344Z,78.80
2023-10-04T22:56:20.369Z,78.80
2023-10-04T22:59:25.855Z,78.90
2023-10-04T23:02:33.208Z,78.90
2023-10-04T23:05:41.338Z,78.90
2023-10-04T23:08:50.124Z,79.00
2023-10-04T23:11:55.522Z,79.00
2023-10-04T23:15:06.942Z,79.20
2023-10-04T23:18:23.734Z,79.00
2023-10-04T23:21:36.299Z,79.00
2023-10-04T23:24:43.794Z,79.00
2023-10-04T23:27:54.211Z,79.00
2023-10-04T23:31:00.237Z,79.00
2023-10-04T23:34:10.041Z,79.00
2023-10-04T23:37:24.442Z,79.00
2023-10-04T23:40:32.209Z,79.10
2023-10-04T23:43:42.098Z,79.10
2023-10-04T23:46:51.129Z,79.20
2023-10-04T23:49:56.778Z,79.20
2023-10-04T23:53:10.112Z,79.20
2023-10-04T23:56:15.928Z,79.30
2023-10-04T23:59:23.770Z,79.30
